Airway Heights, WA (99001)

4:51 AM PST on December 05, 2016 (GMT -0800)
Cedar Estates | | Change Station

Elev 1903 ft 47.65 °N, 117.59 °W | Updated 13 seconds ago

Clear
Clear
19.0 °F
Feels Like 19 °F
N
0.0
Wind Variable Wind from SSE

Today
High -- | Low -- °F
--% Chance of Precip.
Yesterday
High -- | Low -- °F
Precip. -- in
Pressure 30.09 in
Visibility 10.0 miles
Clouds Clear
Windchill 19 °F
Dew Point 18 °F
Humidity 98%
Rainfall 0.00 in
Snow Depth Not available.
7:23 AM 3:59 PM
Waxing Crescent, 31% visible
METAR KGEG 051153Z 23012KT 10SM CLR M06/M08 A3002 RMK AO2 SLP189 T10561083 11017 21056 51013
Pressure 30.09 in
Visibility 10.0 miles
Clouds Clear
Windchill 19 °F
Dew Point 18 °F
Humidity 98%
Rainfall 0.00 in
Snow Depth Not available.
7:23 AM 3:59 PM
Waxing Crescent, 31% visible
METAR KGEG 051153Z 23012KT 10SM CLR M06/M08 A3002 RMK AO2 SLP189 T10561083 11017 21056 51013

10-Day Weather Forecast

Almanac

Astronomy

Dec. 05, 2016 Rise Set
Actual Time
Civil Twilight
Nautical Twilight
Astronomical Twilight
Moon
Length of Visible Light
Length of Day
Tomorrow will be .
, % of the Moon is Illuminated

Today's Extremes

State Highs State Lows

Community

WunderPhotos

Upload Photos

1,955,778 photos uploaded!

WunderBlog® & News

Nearby

Air Quality

  Air Quality AQ Index Pollutant
Not available.

Snow Depth

Station Depth Elevation

Earthquake Activity

City Distance Mag. Time & Date
Minimum magnitude displayed is 2.5.

Coastal Water Temperatures

Place Temperature

Stations

Nearby Weather Stations

Station Location Temp. Windchill Dew Point Humidity Wind Precip. Elev Updated Type
                   

Watches & Warnings

There are currently no watches in effect.